sensor_id;sensor_type;location;lat;lon;timestamp;P1;durP1;ratioP1;P2;durP2;ratioP2
41829;SDS011;38614;43.472;23.936;2024-01-15T00:01:32;39.57;;;17.73;;
41829;SDS011;38614;43.472;23.936;2024-01-15T00:04:20;39.00;;;15.10;;
41829;SDS011;38614;43.472;23.936;2024-01-15T00:07:08;42.47;;;15.90;;
41829;SDS011;38614;43.472;23.936;2024-01-15T00:09:56;43.30;;;18.17;;
41829;SDS011;38614;43.472;23.936;2024-01-15T00:12:44;33.47;;;14.73;;
41829;SDS011;38614;43.472;23.936;2024-01-15T00:15:33;39.87;;;16.67;;
41829;SDS011;38614;43.472;23.936;2024-01-15T00:18:20;40.63;;;19.63;;
41829;SDS011;38614;43.472;23.936;2024-01-15T00:21:09;30.13;;;14.70;;
41829;SDS011;38614;43.472;23.936;2024-01-15T00:23:57;39.57;;;15.27;;
41829;SDS011;38614;43.472;23.936;2024-01-15T00:26:44;38.13;;;14.43;;
41829;SDS011;38614;43.472;23.936;2024-01-15T00:29:32;41.07;;;17.20;;
41829;SDS011;38614;43.472;23.936;2024-01-15T00:32:20;36.57;;;14.43;;
41829;SDS011;38614;43.472;23.936;2024-01-15T00:35:07;38.67;;;15.57;;
41829;SDS011;38614;43.472;23.936;2024-01-15T00:37:55;32.20;;;14.77;;
41829;SDS011;38614;43.472;23.936;2024-01-15T00:40:43;41.33;;;17.03;;
41829;SDS011;38614;43.472;23.936;2024-01-15T00:43:31;39.33;;;15.57;;
41829;SDS011;38614;43.472;23.936;2024-01-15T00:46:19;52.37;;;18.40;;
41829;SDS011;38614;43.472;23.936;2024-01-15T00:49:06;34.00;;;15.63;;
41829;SDS011;38614;43.472;23.936;2024-01-15T00:51:54;32.97;;;14.80;;
41829;SDS011;38614;43.472;23.936;2024-01-15T00:54:42;47.83;;;16.43;;
41829;SDS011;38614;43.472;23.936;2024-01-15T00:57:29;52.90;;;20.77;;
41829;SDS011;38614;43.472;23.936;2024-01-15T01:00:17;63.33;;;20.30;;
41829;SDS011;38614;43.472;23.936;2024-01-15T01:03:05;71.73;;;25.30;;
41829;SDS011;38614;43.472;23.936;2024-01-15T01:05:53;82.83;;;33.90;;
41829;SDS011;38614;43.472;23.936;2024-01-15T01:08:41;68.53;;;29.10;;
41829;SDS011;38614;43.472;23.936;2024-01-15T01:11:29;72.63;;;27.53;;
41829;SDS011;38614;43.472;23.936;2024-01-15T01:14:17;70.13;;;25.57;;
41829;SDS011;38614;43.472;23.936;2024-01-15T01:17:05;60.70;;;23.50;;
41829;SDS011;38614;43.472;23.936;2024-01-15T01:19:52;50.57;;;22.83;;
41829;SDS011;38614;43.472;23.936;2024-01-15T01:22:40;52.73;;;20.87;;
41829;SDS011;38614;43.472;23.936;2024-01-15T01:25:28;33.93;;;17.27;;
41829;SDS011;38614;43.472;23.936;2024-01-15T01:28:16;37.50;;;18.93;;
41829;SDS011;38614;43.472;23.936;2024-01-15T01:31:04;53.70;;;19.10;;
41829;SDS011;38614;43.472;23.936;2024-01-15T01:33:52;41.07;;;19.17;;
41829;SDS011;38614;43.472;23.936;2024-01-15T01:36:39;46.87;;;17.17;;
41829;SDS011;38614;43.472;23.936;2024-01-15T01:39:27;42.93;;;19.77;;
41829;SDS011;38614;43.472;23.936;2024-01-15T01:42:15;39.80;;;18.23;;
41829;SDS011;38614;43.472;23.936;2024-01-15T01:45:03;44.07;;;18.07;;
41829;SDS011;38614;43.472;23.936;2024-01-15T01:47:51;28.50;;;14.00;;
41829;SDS011;38614;43.472;23.936;2024-01-15T01:50:39;31.90;;;14.80;;
41829;SDS011;38614;43.472;23.936;2024-01-15T01:53:27;37.00;;;15.07;;
41829;SDS011;38614;43.472;23.936;2024-01-15T01:56:15;32.33;;;14.70;;
41829;SDS011;38614;43.472;23.936;2024-01-15T01:59:03;28.87;;;14.57;;
41829;SDS011;38614;43.472;23.936;2024-01-15T02:01:52;40.63;;;14.00;;
41829;SDS011;38614;43.472;23.936;2024-01-15T02:04:41;40.20;;;14.80;;
41829;SDS011;38614;43.472;23.936;2024-01-15T02:07:29;42.83;;;16.93;;
41829;SDS011;38614;43.472;23.936;2024-01-15T02:10:17;46.00;;;17.80;;
41829;SDS011;38614;43.472;23.936;2024-01-15T02:13:05;37.83;;;15.80;;
41829;SDS011;38614;43.472;23.936;2024-01-15T02:15:53;44.93;;;17.23;;
41829;SDS011;38614;43.472;23.936;2024-01-15T02:18:41;46.37;;;20.03;;
41829;SDS011;38614;43.472;23.936;2024-01-15T02:21:29;49.70;;;18.67;;
41829;SDS011;38614;43.472;23.936;2024-01-15T02:24:18;43.73;;;19.23;;
41829;SDS011;38614;43.472;23.936;2024-01-15T02:27:07;40.10;;;17.30;;
41829;SDS011;38614;43.472;23.936;2024-01-15T02:29:54;44.30;;;17.57;;
41829;SDS011;38614;43.472;23.936;2024-01-15T02:32:43;43.10;;;19.03;;
41829;SDS011;38614;43.472;23.936;2024-01-15T02:35:31;39.57;;;18.17;;
41829;SDS011;38614;43.472;23.936;2024-01-15T02:38:19;46.87;;;18.93;;
41829;SDS011;38614;43.472;23.936;2024-01-15T02:41:06;53.83;;;18.37;;
41829;SDS011;38614;43.472;23.936;2024-01-15T02:43:54;42.53;;;20.03;;
41829;SDS011;38614;43.472;23.936;2024-01-15T02:46:42;55.23;;;20.87;;
41829;SDS011;38614;43.472;23.936;2024-01-15T02:49:29;45.73;;;17.80;;
41829;SDS011;38614;43.472;23.936;2024-01-15T02:52:19;44.27;;;20.60;;
41829;SDS011;38614;43.472;23.936;2024-01-15T02:55:07;35.13;;;17.47;;
41829;SDS011;38614;43.472;23.936;2024-01-15T02:57:54;33.07;;;16.53;;
41829;SDS011;38614;43.472;23.936;2024-01-15T03:00:42;37.00;;;16.60;;
41829;SDS011;38614;43.472;23.936;2024-01-15T03:03:31;55.07;;;19.63;;
41829;SDS011;38614;43.472;23.936;2024-01-15T03:06:20;36.33;;;18.33;;
41829;SDS011;38614;43.472;23.936;2024-01-15T03:09:08;33.50;;;17.57;;
41829;SDS011;38614;43.472;23.936;2024-01-15T03:11:56;41.20;;;19.00;;
41829;SDS011;38614;43.472;23.936;2024-01-15T03:14:44;55.40;;;19.93;;
41829;SDS011;38614;43.472;23.936;2024-01-15T03:17:31;54.70;;;23.83;;
41829;SDS011;38614;43.472;23.936;2024-01-15T03:20:19;38.07;;;20.87;;
41829;SDS011;38614;43.472;23.936;2024-01-15T03:23:07;44.73;;;18.83;;
41829;SDS011;38614;43.472;23.936;2024-01-15T03:25:55;55.40;;;22.40;;
41829;SDS011;38614;43.472;23.936;2024-01-15T03:28:43;46.20;;;20.43;;
41829;SDS011;38614;43.472;23.936;2024-01-15T03:31:30;51.53;;;21.10;;
41829;SDS011;38614;43.472;23.936;2024-01-15T03:34:18;54.00;;;22.53;;
41829;SDS011;38614;43.472;23.936;2024-01-15T03:37:07;56.00;;;24.93;;
41829;SDS011;38614;43.472;23.936;2024-01-15T03:39:54;60.17;;;26.77;;
41829;SDS011;38614;43.472;23.936;2024-01-15T03:42:42;72.87;;;29.80;;
41829;SDS011;38614;43.472;23.936;2024-01-15T03:45:30;64.37;;;30.13;;
41829;SDS011;38614;43.472;23.936;2024-01-15T03:48:19;63.83;;;32.43;;
41829;SDS011;38614;43.472;23.936;2024-01-15T03:51:07;69.00;;;31.40;;
41829;SDS011;38614;43.472;23.936;2024-01-15T03:53:55;73.23;;;38.23;;
41829;SDS011;38614;43.472;23.936;2024-01-15T03:56:42;78.60;;;37.90;;
41829;SDS011;38614;43.472;23.936;2024-01-15T03:59:30;73.77;;;35.03;;
41829;SDS011;38614;43.472;23.936;2024-01-15T04:02:18;75.47;;;33.30;;
41829;SDS011;38614;43.472;23.936;2024-01-15T04:05:07;64.03;;;32.90;;
41829;SDS011;38614;43.472;23.936;2024-01-15T04:08:02;63.77;;;30.07;;
41829;SDS011;38614;43.472;23.936;2024-01-15T04:10:50;51.47;;;22.37;;
41829;SDS011;38614;43.472;23.936;2024-01-15T04:13:38;63.03;;;21.57;;
41829;SDS011;38614;43.472;23.936;2024-01-15T04:16:28;54.60;;;24.90;;
41829;SDS011;38614;43.472;23.936;2024-01-15T04:19:16;45.73;;;20.47;;
41829;SDS011;38614;43.472;23.936;2024-01-15T04:22:04;53.00;;;23.80;;
41829;SDS011;38614;43.472;23.936;2024-01-15T04:24:52;45.17;;;19.83;;
41829;SDS011;38614;43.472;23.936;2024-01-15T04:27:40;40.37;;;19.40;;
41829;SDS011;38614;43.472;23.936;2024-01-15T04:30:27;35.63;;;17.53;;
41829;SDS011;38614;43.472;23.936;2024-01-15T04:33:16;56.40;;;19.63;;
41829;SDS011;38614;43.472;23.936;2024-01-15T04:36:04;36.00;;;15.07;;
41829;SDS011;38614;43.472;23.936;2024-01-15T04:38:53;41.33;;;20.40;;
41829;SDS011;38614;43.472;23.936;2024-01-15T04:41:40;40.57;;;18.80;;
41829;SDS011;38614;43.472;23.936;2024-01-15T04:44:29;36.87;;;17.57;;
41829;SDS011;38614;43.472;23.936;2024-01-15T04:47:17;55.70;;;22.40;;
41829;SDS011;38614;43.472;23.936;2024-01-15T04:50:05;40.90;;;19.40;;
41829;SDS011;38614;43.472;23.936;2024-01-15T04:52:53;38.47;;;20.57;;
41829;SDS011;38614;43.472;23.936;2024-01-15T04:55:41;41.93;;;22.53;;
41829;SDS011;38614;43.472;23.936;2024-01-15T04:58:29;44.27;;;20.07;;
41829;SDS011;38614;43.472;23.936;2024-01-15T05:01:17;37.70;;;18.60;;
41829;SDS011;38614;43.472;23.936;2024-01-15T05:04:05;42.37;;;20.43;;
41829;SDS011;38614;43.472;23.936;2024-01-15T05:06:53;38.57;;;20.70;;
41829;SDS011;38614;43.472;23.936;2024-01-15T05:09:41;40.50;;;21.93;;
41829;SDS011;38614;43.472;23.936;2024-01-15T05:12:29;40.27;;;20.07;;
41829;SDS011;38614;43.472;23.936;2024-01-15T05:15:18;34.23;;;17.93;;
41829;SDS011;38614;43.472;23.936;2024-01-15T05:18:05;37.13;;;16.90;;
41829;SDS011;38614;43.472;23.936;2024-01-15T05:20:54;55.03;;;19.77;;
41829;SDS011;38614;43.472;23.936;2024-01-15T05:23:42;42.93;;;20.30;;
41829;SDS011;38614;43.472;23.936;2024-01-15T05:26:30;41.27;;;18.93;;
41829;SDS011;38614;43.472;23.936;2024-01-15T05:29:17;38.00;;;17.53;;
41829;SDS011;38614;43.472;23.936;2024-01-15T05:32:05;38.73;;;16.50;;
41829;SDS011;38614;43.472;23.936;2024-01-15T05:34:56;53.90;;;19.27;;
41829;SDS011;38614;43.472;23.936;2024-01-15T05:37:44;45.83;;;21.67;;
41829;SDS011;38614;43.472;23.936;2024-01-15T05:40:32;48.30;;;22.93;;
41829;SDS011;38614;43.472;23.936;2024-01-15T05:43:20;40.67;;;20.93;;
41829;SDS011;38614;43.472;23.936;2024-01-15T05:46:08;54.93;;;17.67;;
41829;SDS011;38614;43.472;23.936;2024-01-15T05:48:56;36.57;;;19.20;;
41829;SDS011;38614;43.472;23.936;2024-01-15T05:51:44;40.33;;;17.67;;
41829;SDS011;38614;43.472;23.936;2024-01-15T05:54:34;46.30;;;16.93;;
41829;SDS011;38614;43.472;23.936;2024-01-15T05:57:23;34.50;;;16.43;;
41829;SDS011;38614;43.472;23.936;2024-01-15T06:00:11;35.97;;;14.63;;
41829;SDS011;38614;43.472;23.936;2024-01-15T06:02:59;21.93;;;13.30;;
41829;SDS011;38614;43.472;23.936;2024-01-15T06:05:47;42.50;;;12.33;;
41829;SDS011;38614;43.472;23.936;2024-01-15T06:08:34;108.73;;;33.87;;
41829;SDS011;38614;43.472;23.936;2024-01-15T06:11:22;315.80;;;89.13;;
41829;SDS011;38614;43.472;23.936;2024-01-15T06:14:10;135.13;;;50.90;;
41829;SDS011;38614;43.472;23.936;2024-01-15T06:16:58;104.63;;;35.93;;
41829;SDS011;38614;43.472;23.936;2024-01-15T06:19:45;135.43;;;44.07;;
41829;SDS011;38614;43.472;23.936;2024-01-15T06:22:35;87.07;;;34.17;;
41829;SDS011;38614;43.472;23.936;2024-01-15T06:25:24;71.00;;;29.40;;
41829;SDS011;38614;43.472;23.936;2024-01-15T06:28:11;140.67;;;49.47;;
41829;SDS011;38614;43.472;23.936;2024-01-15T06:30:59;109.10;;;40.23;;
41829;SDS011;38614;43.472;23.936;2024-01-15T06:33:47;109.97;;;38.70;;
41829;SDS011;38614;43.472;23.936;2024-01-15T06:36:36;111.60;;;40.30;;
41829;SDS011;38614;43.472;23.936;2024-01-15T06:39:24;70.60;;;29.40;;
41829;SDS011;38614;43.472;23.936;2024-01-15T06:42:12;78.67;;;30.17;;
41829;SDS011;38614;43.472;23.936;2024-01-15T06:44:59;91.67;;;33.10;;
41829;SDS011;38614;43.472;23.936;2024-01-15T06:47:49;80.80;;;29.53;;
41829;SDS011;38614;43.472;23.936;2024-01-15T06:50:36;59.30;;;24.43;;
41829;SDS011;38614;43.472;23.936;2024-01-15T06:53:24;59.87;;;25.30;;
41829;SDS011;38614;43.472;23.936;2024-01-15T06:56:12;63.10;;;27.93;;
41829;SDS011;38614;43.472;23.936;2024-01-15T06:59:00;65.60;;;25.83;;
41829;SDS011;38614;43.472;23.936;2024-01-15T07:01:47;69.05;;;25.73;;
41829;SDS011;38614;43.472;23.936;2024-01-15T07:04:38;58.03;;;23.48;;
41829;SDS011;38614;43.472;23.936;2024-01-15T07:07:29;41.00;;;19.35;;
41829;SDS011;38614;43.472;23.936;2024-01-15T07:10:17;63.22;;;27.38;;
41829;SDS011;38614;43.472;23.936;2024-01-15T07:13:05;79.65;;;32.70;;
41829;SDS011;38614;43.472;23.936;2024-01-15T07:15:53;69.28;;;36.83;;
41829;SDS011;38614;43.472;23.936;2024-01-15T07:18:41;50.03;;;29.05;;
41829;SDS011;38614;43.472;23.936;2024-01-15T07:21:32;29.83;;;16.65;;
41829;SDS011;38614;43.472;23.936;2024-01-15T07:24:20;81.30;;;30.45;;
41829;SDS011;38614;43.472;23.936;2024-01-15T07:27:11;70.70;;;30.45;;
41829;SDS011;38614;43.472;23.936;2024-01-15T07:29:59;44.75;;;18.75;;
41829;SDS011;38614;43.472;23.936;2024-01-15T07:32:49;41.40;;;18.15;;
41829;SDS011;38614;43.472;23.936;2024-01-15T07:35:37;37.35;;;17.85;;
41829;SDS011;38614;43.472;23.936;2024-01-15T07:38:24;55.78;;;21.77;;
41829;SDS011;38614;43.472;23.936;2024-01-15T07:41:13;47.35;;;19.30;;
41829;SDS011;38614;43.472;23.936;2024-01-15T07:44:03;44.53;;;18.70;;
41829;SDS011;38614;43.472;23.936;2024-01-15T07:47:00;44.80;;;19.95;;
41829;SDS011;38614;43.472;23.936;2024-01-15T07:49:54;41.75;;;15.63;;
41829;SDS011;38614;43.472;23.936;2024-01-15T07:52:51;55.08;;;19.00;;
41829;SDS011;38614;43.472;23.936;2024-01-15T07:55:41;43.55;;;18.27;;
41829;SDS011;38614;43.472;23.936;2024-01-15T07:58:29;50.63;;;24.40;;
41829;SDS011;38614;43.472;23.936;2024-01-15T08:01:17;54.13;;;22.20;;
41829;SDS011;38614;43.472;23.936;2024-01-15T08:04:05;51.00;;;21.63;;
41829;SDS011;38614;43.472;23.936;2024-01-15T08:06:53;43.70;;;17.60;;
41829;SDS011;38614;43.472;23.936;2024-01-15T08:09:41;39.10;;;15.73;;
41829;SDS011;38614;43.472;23.936;2024-01-15T08:12:29;38.58;;;16.05;;
41829;SDS011;38614;43.472;23.936;2024-01-15T08:15:17;41.25;;;17.50;;
41829;SDS011;38614;43.472;23.936;2024-01-15T08:18:05;38.35;;;16.70;;
41829;SDS011;38614;43.472;23.936;2024-01-15T08:20:53;36.47;;;17.98;;
41829;SDS011;38614;43.472;23.936;2024-01-15T08:23:41;52.10;;;19.13;;
41829;SDS011;38614;43.472;23.936;2024-01-15T08:26:29;39.38;;;17.25;;
41829;SDS011;38614;43.472;23.936;2024-01-15T08:29:17;37.97;;;17.90;;
41829;SDS011;38614;43.472;23.936;2024-01-15T08:32:07;42.17;;;19.05;;
41829;SDS011;38614;43.472;23.936;2024-01-15T08:35:01;42.45;;;18.63;;
41829;SDS011;38614;43.472;23.936;2024-01-15T08:37:51;52.20;;;20.23;;
41829;SDS011;38614;43.472;23.936;2024-01-15T08:40:39;38.47;;;18.15;;
41829;SDS011;38614;43.472;23.936;2024-01-15T08:43:26;101.65;;;40.83;;
41829;SDS011;38614;43.472;23.936;2024-01-15T08:46:14;140.70;;;48.85;;
41829;SDS011;38614;43.472;23.936;2024-01-15T08:49:02;114.15;;;38.35;;
41829;SDS011;38614;43.472;23.936;2024-01-15T08:51:51;98.32;;;34.97;;
41829;SDS011;38614;43.472;23.936;2024-01-15T08:54:38;101.65;;;35.03;;
41829;SDS011;38614;43.472;23.936;2024-01-15T08:57:26;99.38;;;35.67;;
41829;SDS011;38614;43.472;23.936;2024-01-15T09:00:14;142.38;;;53.42;;
41829;SDS011;38614;43.472;23.936;2024-01-15T09:03:02;93.25;;;38.53;;
41829;SDS011;38614;43.472;23.936;2024-01-15T09:05:50;76.85;;;33.70;;
41829;SDS011;38614;43.472;23.936;2024-01-15T09:08:38;79.75;;;30.15;;
41829;SDS011;38614;43.472;23.936;2024-01-15T09:11:26;70.90;;;31.23;;
41829;SDS011;38614;43.472;23.936;2024-01-15T09:14:17;66.65;;;30.45;;
41829;SDS011;38614;43.472;23.936;2024-01-15T09:17:16;79.80;;;29.60;;
41829;SDS011;38614;43.472;23.936;2024-01-15T09:20:04;73.95;;;26.48;;
41829;SDS011;38614;43.472;23.936;2024-01-15T09:22:54;70.95;;;27.50;;
41829;SDS011;38614;43.472;23.936;2024-01-15T09:25:42;73.22;;;31.40;;
41829;SDS011;38614;43.472;23.936;2024-01-15T09:28:30;98.28;;;40.40;;
41829;SDS011;38614;43.472;23.936;2024-01-15T09:31:18;61.88;;;25.92;;
41829;SDS011;38614;43.472;23.936;2024-01-15T09:34:07;43.63;;;19.58;;
41829;SDS011;38614;43.472;23.936;2024-01-15T09:36:55;43.72;;;18.00;;
41829;SDS011;38614;43.472;23.936;2024-01-15T09:39:42;37.45;;;16.67;;
41829;SDS011;38614;43.472;23.936;2024-01-15T09:42:33;44.53;;;18.98;;
41829;SDS011;38614;43.472;23.936;2024-01-15T09:45:21;37.30;;;16.95;;
41829;SDS011;38614;43.472;23.936;2024-01-15T09:48:09;34.03;;;14.68;;
41829;SDS011;38614;43.472;23.936;2024-01-15T09:50:57;12.95;;;8.23;;
41829;SDS011;38614;43.472;23.936;2024-01-15T09:53:46;26.10;;;7.43;;
41829;SDS011;38614;43.472;23.936;2024-01-15T09:56:34;19.20;;;7.88;;
41829;SDS011;38614;43.472;23.936;2024-01-15T09:59:25;14.73;;;5.60;;
41829;SDS011;38614;43.472;23.936;2024-01-15T10:02:14;26.30;;;9.52;;
41829;SDS011;38614;43.472;23.936;2024-01-15T10:05:04;39.73;;;13.00;;
41829;SDS011;38614;43.472;23.936;2024-01-15T10:07:53;38.92;;;16.70;;
41829;SDS011;38614;43.472;23.936;2024-01-15T10:10:41;27.80;;;11.93;;
41829;SDS011;38614;43.472;23.936;2024-01-15T10:13:29;35.53;;;16.33;;
41829;SDS011;38614;43.472;23.936;2024-01-15T10:16:17;31.40;;;14.48;;
41829;SDS011;38614;43.472;23.936;2024-01-15T10:19:06;34.83;;;15.77;;
41829;SDS011;38614;43.472;23.936;2024-01-15T10:21:55;26.45;;;13.65;;
41829;SDS011;38614;43.472;23.936;2024-01-15T10:24:43;21.58;;;9.25;;
41829;SDS011;38614;43.472;23.936;2024-01-15T10:27:30;20.58;;;7.88;;
41829;SDS011;38614;43.472;23.936;2024-01-15T10:30:18;17.23;;;8.27;;
41829;SDS011;38614;43.472;23.936;2024-01-15T10:33:06;16.35;;;7.47;;
41829;SDS011;38614;43.472;23.936;2024-01-15T10:35:55;22.13;;;9.68;;
41829;SDS011;38614;43.472;23.936;2024-01-15T10:38:45;17.17;;;7.75;;
41829;SDS011;38614;43.472;23.936;2024-01-15T10:41:34;22.63;;;8.32;;
41829;SDS011;38614;43.472;23.936;2024-01-15T10:44:21;34.83;;;16.23;;
41829;SDS011;38614;43.472;23.936;2024-01-15T10:47:09;37.38;;;13.93;;
41829;SDS011;38614;43.472;23.936;2024-01-15T10:49:58;42.08;;;16.50;;
41829;SDS011;38614;43.472;23.936;2024-01-15T10:52:46;45.95;;;20.65;;
41829;SDS011;38614;43.472;23.936;2024-01-15T10:55:33;123.95;;;41.97;;
41829;SDS011;38614;43.472;23.936;2024-01-15T10:58:22;161.73;;;51.17;;
41829;SDS011;38614;43.472;23.936;2024-01-15T11:01:11;67.65;;;25.00;;
41829;SDS011;38614;43.472;23.936;2024-01-15T11:03:59;51.28;;;20.63;;
41829;SDS011;38614;43.472;23.936;2024-01-15T11:06:49;42.40;;;19.48;;
41829;SDS011;38614;43.472;23.936;2024-01-15T11:09:37;45.38;;;21.52;;
41829;SDS011;38614;43.472;23.936;2024-01-15T11:12:25;50.67;;;20.52;;
41829;SDS011;38614;43.472;23.936;2024-01-15T11:15:16;35.53;;;17.65;;
41829;SDS011;38614;43.472;23.936;2024-01-15T11:18:10;35.72;;;17.98;;
41829;SDS011;38614;43.472;23.936;2024-01-15T11:24:05;49.03;;;17.05;;
41829;SDS011;38614;43.472;23.936;2024-01-15T11:26:54;30.50;;;15.35;;
41829;SDS011;38614;43.472;23.936;2024-01-15T11:29:42;37.00;;;17.88;;
41829;SDS011;38614;43.472;23.936;2024-01-15T11:32:33;43.08;;;19.45;;
41829;SDS011;38614;43.472;23.936;2024-01-15T11:35:21;57.15;;;22.90;;
41829;SDS011;38614;43.472;23.936;2024-01-15T11:38:11;43.90;;;21.10;;
41829;SDS011;38614;43.472;23.936;2024-01-15T11:40:59;82.07;;;32.03;;
41829;SDS011;38614;43.472;23.936;2024-01-15T11:43:48;69.85;;;30.63;;
41829;SDS011;38614;43.472;23.936;2024-01-15T11:46:37;69.85;;;30.73;;
41829;SDS011;38614;43.472;23.936;2024-01-15T11:49:44;83.18;;;32.92;;
41829;SDS011;38614;43.472;23.936;2024-01-15T11:52:35;72.93;;;31.80;;
41829;SDS011;38614;43.472;23.936;2024-01-15T11:58:13;72.75;;;30.63;;
41829;SDS011;38614;43.472;23.936;2024-01-15T12:01:01;65.28;;;28.83;;
41829;SDS011;38614;43.472;23.936;2024-01-15T12:03:49;70.32;;;32.47;;
41829;SDS011;38614;43.472;23.936;2024-01-15T12:06:37;76.55;;;32.00;;
41829;SDS011;38614;43.472;23.936;2024-01-15T12:09:25;72.20;;;32.08;;
41829;SDS011;38614;43.472;23.936;2024-01-15T12:12:17;70.68;;;33.22;;
41829;SDS011;38614;43.472;23.936;2024-01-15T12:15:07;74.00;;;32.63;;
41829;SDS011;38614;43.472;23.936;2024-01-15T12:17:55;77.72;;;35.40;;
41829;SDS011;38614;43.472;23.936;2024-01-15T12:20:45;74.55;;;34.53;;
41829;SDS011;38614;43.472;23.936;2024-01-15T12:23:36;84.53;;;37.63;;
41829;SDS011;38614;43.472;23.936;2024-01-15T12:26:24;83.82;;;38.15;;
41829;SDS011;38614;43.472;23.936;2024-01-15T12:29:12;71.25;;;35.78;;
41829;SDS011;38614;43.472;23.936;2024-01-15T12:32:00;75.40;;;37.30;;
41829;SDS011;38614;43.472;23.936;2024-01-15T12:34:48;70.03;;;35.00;;
41829;SDS011;38614;43.472;23.936;2024-01-15T12:37:42;78.90;;;36.60;;
41829;SDS011;38614;43.472;23.936;2024-01-15T12:40:30;80.55;;;35.90;;
41829;SDS011;38614;43.472;23.936;2024-01-15T12:43:18;93.32;;;38.10;;
41829;SDS011;38614;43.472;23.936;2024-01-15T12:46:07;87.32;;;39.80;;
41829;SDS011;38614;43.472;23.936;2024-01-15T12:48:55;92.65;;;43.03;;
41829;SDS011;38614;43.472;23.936;2024-01-15T12:51:43;98.32;;;44.03;;
41829;SDS011;38614;43.472;23.936;2024-01-15T12:54:39;86.82;;;37.28;;
41829;SDS011;38614;43.472;23.936;2024-01-15T12:57:27;72.63;;;29.77;;
41829;SDS011;38614;43.472;23.936;2024-01-15T13:00:14;72.72;;;29.85;;
41829;SDS011;38614;43.472;23.936;2024-01-15T13:03:02;74.15;;;31.30;;
41829;SDS011;38614;43.472;23.936;2024-01-15T13:05:51;74.60;;;29.08;;
41829;SDS011;38614;43.472;23.936;2024-01-15T13:08:40;46.60;;;20.40;;
41829;SDS011;38614;43.472;23.936;2024-01-15T13:11:28;40.20;;;17.70;;
41829;SDS011;38614;43.472;23.936;2024-01-15T13:14:18;32.38;;;12.07;;
41829;SDS011;38614;43.472;23.936;2024-01-15T13:17:06;23.85;;;11.63;;
41829;SDS011;38614;43.472;23.936;2024-01-15T13:19:54;27.10;;;12.05;;
41829;SDS011;38614;43.472;23.936;2024-01-15T13:22:41;22.27;;;11.30;;
41829;SDS011;38614;43.472;23.936;2024-01-15T13:25:32;30.38;;;12.35;;
41829;SDS011;38614;43.472;23.936;2024-01-15T13:28:22;41.33;;;15.82;;
41829;SDS011;38614;43.472;23.936;2024-01-15T13:31:12;47.08;;;16.52;;
41829;SDS011;38614;43.472;23.936;2024-01-15T13:34:00;44.58;;;15.10;;
41829;SDS011;38614;43.472;23.936;2024-01-15T13:36:48;36.47;;;14.38;;
41829;SDS011;38614;43.472;23.936;2024-01-15T13:39:37;30.17;;;13.13;;
41829;SDS011;38614;43.472;23.936;2024-01-15T13:42:25;29.50;;;11.40;;
41829;SDS011;38614;43.472;23.936;2024-01-15T13:45:15;24.63;;;10.73;;
41829;SDS011;38614;43.472;23.936;2024-01-15T13:48:07;17.48;;;11.52;;
41829;SDS011;38614;43.472;23.936;2024-01-15T13:50:57;21.13;;;10.05;;
41829;SDS011;38614;43.472;23.936;2024-01-15T13:53:48;27.27;;;11.57;;
41829;SDS011;38614;43.472;23.936;2024-01-15T13:56:39;18.85;;;10.43;;
41829;SDS011;38614;43.472;23.936;2024-01-15T13:59:26;19.27;;;9.70;;
41829;SDS011;38614;43.472;23.936;2024-01-15T14:02:14;43.47;;;16.63;;
41829;SDS011;38614;43.472;23.936;2024-01-15T14:05:07;46.78;;;19.25;;
41829;SDS011;38614;43.472;23.936;2024-01-15T14:07:55;51.10;;;22.13;;
41829;SDS011;38614;43.472;23.936;2024-01-15T14:10:48;44.10;;;18.55;;
41829;SDS011;38614;43.472;23.936;2024-01-15T14:13:36;42.30;;;20.63;;
41829;SDS011;38614;43.472;23.936;2024-01-15T14:16:23;36.97;;;15.75;;
41829;SDS011;38614;43.472;23.936;2024-01-15T14:19:13;37.10;;;15.73;;
41829;SDS011;38614;43.472;23.936;2024-01-15T14:22:01;33.08;;;15.50;;
41829;SDS011;38614;43.472;23.936;2024-01-15T14:24:51;42.22;;;17.30;;
41829;SDS011;38614;43.472;23.936;2024-01-15T14:27:39;31.02;;;15.45;;
41829;SDS011;38614;43.472;23.936;2024-01-15T14:30:27;29.70;;;14.57;;
41829;SDS011;38614;43.472;23.936;2024-01-15T14:33:15;30.65;;;14.60;;
41829;SDS011;38614;43.472;23.936;2024-01-15T14:36:04;30.73;;;14.55;;
41829;SDS011;38614;43.472;23.936;2024-01-15T14:38:52;34.50;;;15.40;;
41829;SDS011;38614;43.472;23.936;2024-01-15T14:41:39;34.40;;;14.32;;
41829;SDS011;38614;43.472;23.936;2024-01-15T14:44:27;24.95;;;14.52;;
41829;SDS011;38614;43.472;23.936;2024-01-15T14:47:21;30.48;;;14.90;;
41829;SDS011;38614;43.472;23.936;2024-01-15T14:50:16;53.15;;;18.23;;
41829;SDS011;38614;43.472;23.936;2024-01-15T14:53:12;74.82;;;25.45;;
41829;SDS011;38614;43.472;23.936;2024-01-15T14:56:00;55.97;;;24.92;;
41829;SDS011;38614;43.472;23.936;2024-01-15T14:58:51;57.47;;;24.75;;
41829;SDS011;38614;43.472;23.936;2024-01-15T15:01:41;65.78;;;31.90;;
41829;SDS011;38614;43.472;23.936;2024-01-15T15:04:31;63.80;;;27.63;;
41829;SDS011;38614;43.472;23.936;2024-01-15T15:07:19;56.58;;;26.25;;
41829;SDS011;38614;43.472;23.936;2024-01-15T15:10:07;72.65;;;25.23;;
41829;SDS011;38614;43.472;23.936;2024-01-15T15:13:03;81.25;;;27.20;;
41829;SDS011;38614;43.472;23.936;2024-01-15T15:15:53;56.30;;;26.13;;
41829;SDS011;38614;43.472;23.936;2024-01-15T15:18:41;133.60;;;77.68;;
41829;SDS011;38614;43.472;23.936;2024-01-15T15:21:31;154.25;;;62.58;;
41829;SDS011;38614;43.472;23.936;2024-01-15T15:24:19;99.90;;;48.35;;
41829;SDS011;38614;43.472;23.936;2024-01-15T15:27:07;100.28;;;44.95;;
41829;SDS011;38614;43.472;23.936;2024-01-15T15:29:54;108.70;;;48.83;;
41829;SDS011;38614;43.472;23.936;2024-01-15T15:32:42;95.53;;;41.50;;
41829;SDS011;38614;43.472;23.936;2024-01-15T15:35:31;80.82;;;39.05;;
41829;SDS011;38614;43.472;23.936;2024-01-15T15:38:19;72.65;;;33.95;;
41829;SDS011;38614;43.472;23.936;2024-01-15T15:41:07;76.50;;;36.10;;
41829;SDS011;38614;43.472;23.936;2024-01-15T15:44:00;78.22;;;36.17;;
41829;SDS011;38614;43.472;23.936;2024-01-15T15:46:48;67.50;;;32.78;;
41829;SDS011;38614;43.472;23.936;2024-01-15T15:49:38;74.28;;;30.17;;
41829;SDS011;38614;43.472;23.936;2024-01-15T15:52:26;62.00;;;29.00;;
41829;SDS011;38614;43.472;23.936;2024-01-15T15:55:17;68.03;;;29.23;;
41829;SDS011;38614;43.472;23.936;2024-01-15T15:58:05;62.03;;;26.70;;
41829;SDS011;38614;43.472;23.936;2024-01-15T16:00:53;98.15;;;37.20;;
41829;SDS011;38614;43.472;23.936;2024-01-15T16:03:41;66.97;;;33.08;;
41829;SDS011;38614;43.472;23.936;2024-01-15T16:06:29;57.38;;;27.70;;
41829;SDS011;38614;43.472;23.936;2024-01-15T16:09:17;46.30;;;21.83;;
41829;SDS011;38614;43.472;23.936;2024-01-15T16:12:05;46.38;;;20.67;;
41829;SDS011;38614;43.472;23.936;2024-01-15T16:14:54;89.90;;;31.63;;
41829;SDS011;38614;43.472;23.936;2024-01-15T16:17:42;93.10;;;35.15;;